Time;durP1;ratioP1;P1;durP2;ratioP2;P2;SDS_P1;SDS_P2;PMS_P1;PMS_P2;Temp;Humidity;BMP_temperature;BMP_pressure;BME280_temperature;BME280_humidity;BME280_pressure;Samples;Min_cycle;Max_cycle;Signal;HPM_P1;HPM_P2
2021/09/27 00:02:06;;;;;;;24.15;13.85;;;487.10;2380.80;;;;;;5075707;28;20024;-71
2021/09/27 00:04:33;;;;;;;23.50;13.95;;;487.00;2380.80;;;;;;5074987;28;20020;-71
2021/09/27 00:06:59;;;;;;;23.58;13.70;;;487.00;2380.80;;;;;;5090744;28;20016;-70
2021/09/27 00:09:33;;;;;;;24.98;14.90;;;487.00;2380.80;;;;;;5093614;28;20462;-67
2021/09/27 00:12:04;;;;;;;25.00;15.27;;;487.00;2380.80;;;;;;5074250;28;20024;-71
2021/09/27 00:14:30;;;;;;;25.55;14.55;;;486.90;2380.80;;;;;;5093663;28;20476;-69
2021/09/27 00:16:56;;;;;;;25.30;15.30;;;486.90;2380.80;;;;;;5093466;28;20032;-71
2021/09/27 00:19:24;;;;;;;25.75;15.30;;;486.90;2380.80;;;;;;5093630;28;20028;-71
2021/09/27 00:21:51;;;;;;;25.40;15.23;;;486.80;2380.80;;;;;;5095774;28;20043;-70
2021/09/27 00:24:17;;;;;;;27.85;15.45;;;486.90;2380.80;;;;;;5097878;28;20468;-72
2021/09/27 00:26:42;;;;;;;23.85;14.63;;;486.90;2380.80;;;;;;5097695;28;20116;-70
2021/09/27 00:29:08;;;;;;;22.88;14.90;;;486.90;2380.80;;;;;;5097359;28;20064;-70
2021/09/27 00:31:34;;;;;;;30.33;15.98;;;486.90;2380.80;;;;;;5097014;28;20016;-71
2021/09/27 00:34:00;;;;;;;27.95;15.68;;;486.90;2380.80;;;;;;5096878;28;20040;-71
2021/09/27 00:36:26;;;;;;;27.08;16.25;;;486.80;2380.80;;;;;;5078720;28;20541;-70
2021/09/27 00:38:52;;;;;;;24.73;15.05;;;487.10;2380.80;;;;;;5097022;28;20024;-70
2021/09/27 00:41:20;;;;;;;22.70;15.25;;;486.80;2380.80;;;;;;5096875;28;20093;-71
2021/09/27 00:43:47;;;;;;;26.92;16.08;;;486.80;2380.80;;;;;;5097257;28;20359;-69
2021/09/27 00:46:19;;;;;;;25.00;15.57;;;486.70;2380.80;;;;;;5096714;28;20050;-70
2021/09/27 00:48:45;;;;;;;25.95;15.52;;;486.70;2380.80;;;;;;5096598;28;20389;-69
2021/09/27 00:51:15;;;;;;;23.35;15.35;;;486.40;2380.80;;;;;;5096773;28;20024;-70
2021/09/27 00:53:43;;;;;;;26.65;14.57;;;486.70;2380.80;;;;;;5096668;28;20032;-71
2021/09/27 00:56:12;;;;;;;26.13;15.30;;;486.70;2380.80;;;;;;5096570;28;20016;-70
2021/09/27 00:58:38;;;;;;;28.63;15.50;;;486.70;2380.80;;;;;;5096657;28;20468;-71
2021/09/27 01:01:05;;;;;;;24.45;15.35;;;486.40;2380.80;;;;;;5096339;28;20024;-71
2021/09/27 01:03:32;;;;;;;27.40;15.80;;;486.60;2380.80;;;;;;5096593;28;20028;-71
2021/09/27 01:06:01;;;;;;;22.30;15.05;;;486.50;2380.80;;;;;;5096525;28;20020;-70
2021/09/27 01:08:37;;;;;;;26.27;14.85;;;486.50;2380.80;;;;;;5096545;28;20081;-70
2021/09/27 01:11:41;;;;;;;27.80;15.75;;;486.60;2380.80;;;;;;5096220;28;20025;-71
2021/09/27 01:14:35;;;;;;;26.17;15.50;;;486.60;2380.80;;;;;;4994511;28;20054;-71
2021/09/27 01:17:25;;;;;;;23.98;15.35;;;486.50;2380.80;;;;;;4994643;28;20523;-72
2021/09/27 01:19:54;;;;;;;24.00;14.85;;;486.50;2380.80;;;;;;4994397;28;20023;-72
2021/09/27 01:22:30;;;;;;;25.98;15.23;;;486.60;2380.80;;;;;;4994163;28;20062;-72
2021/09/27 01:24:56;;;;;;;26.25;14.88;;;486.60;2380.80;;;;;;4994352;28;20037;-71
2021/09/27 01:27:42;;;;;;;22.63;14.75;;;486.60;2380.80;;;;;;4994467;28;20109;-72
2021/09/27 01:30:23;;;;;;;25.40;14.18;;;486.70;2380.80;;;;;;4994803;28;20456;-72
2021/09/27 01:33:33;;;;;;;27.20;14.88;;;486.70;2380.80;;;;;;4993721;28;20117;-71
2021/09/27 01:36:05;;;;;;;28.27;14.75;;;486.70;2380.80;;;;;;4994400;28;20025;-72
2021/09/27 01:38:51;;;;;;;28.75;14.68;;;486.80;2380.80;;;;;;4994140;28;20440;-69
2021/09/27 01:41:42;;;;;;;27.80;15.32;;;486.80;2380.80;;;;;;4994550;28;20086;-72
2021/09/27 01:44:27;;;;;;;29.17;15.15;;;486.80;2380.80;;;;;;4994560;28;20038;-71
2021/09/27 01:47:04;;;;;;;22.55;15.15;;;486.80;2380.80;;;;;;4994800;28;20026;-72
2021/09/27 01:49:47;;;;;;;23.50;15.10;;;486.80;2380.80;;;;;;4994180;28;20045;-72
2021/09/27 01:52:57;;;;;;;25.95;15.48;;;486.90;2380.80;;;;;;5089883;28;20377;-71
2021/09/27 01:55:34;;;;;;;29.77;15.10;;;486.90;2380.80;;;;;;4977477;28;20050;-71
2021/09/27 01:58:05;;;;;;;25.52;15.60;;;486.90;2380.80;;;;;;4977085;28;20038;-72
2021/09/27 02:00:46;;;;;;;32.15;15.45;;;487.00;2380.80;;;;;;4993757;28;20030;-72
2021/09/27 02:03:25;;;;;;;26.85;15.38;;;487.00;2380.80;;;;;;4993967;28;20031;-71
2021/09/27 02:06:11;;;;;;;25.98;14.75;;;487.00;2380.80;;;;;;4977757;28;20034;-73
2021/09/27 02:09:04;;;;;;;24.10;14.98;;;487.00;2380.80;;;;;;4994070;28;20089;-73
2021/09/27 02:11:38;;;;;;;24.02;15.05;;;487.00;2380.80;;;;;;4994131;28;20046;-72
2021/09/27 02:14:14;;;;;;;20.85;13.57;;;487.10;2380.80;;;;;;4994124;28;20034;-72
2021/09/27 02:16:58;;;;;;;22.33;14.65;;;487.10;2380.80;;;;;;4994090;28;20070;-71
2021/09/27 02:19:50;;;;;;;24.08;13.82;;;487.10;2380.80;;;;;;4993725;28;20108;-72
2021/09/27 02:22:23;;;;;;;22.42;14.93;;;487.10;2380.80;;;;;;4954402;28;20387;-73
2021/09/27 02:25:05;;;;;;;24.20;14.85;;;487.10;2380.80;;;;;;4955066;29;20039;-73
2021/09/27 02:27:32;;;;;;;21.67;14.95;;;487.20;2380.80;;;;;;4955271;29;20497;-73
2021/09/27 02:29:57;;;;;;;27.80;15.25;;;487.20;2380.80;;;;;;4964745;28;20088;-72
2021/09/27 02:32:37;;;;;;;29.35;15.52;;;487.20;2380.80;;;;;;5013112;28;20025;-73
2021/09/27 02:35:15;;;;;;;28.65;16.10;;;487.20;2380.80;;;;;;5013453;28;20404;-69
2021/09/27 02:38:03;;;;;;;31.00;16.27;;;487.20;2380.80;;;;;;4996546;28;20427;-71
2021/09/27 02:40:49;;;;;;;27.27;15.65;;;487.20;2380.80;;;;;;5013051;28;20115;-73
2021/09/27 02:43:15;;;;;;;27.58;16.05;;;487.20;2380.80;;;;;;5013228;28;20064;-72
2021/09/27 02:45:45;;;;;;;26.02;15.65;;;487.20;2380.80;;;;;;4995700;28;20068;-68
2021/09/27 02:48:32;;;;;;;25.75;16.05;;;487.20;2380.80;;;;;;5013122;28;20075;-74
2021/09/27 02:50:59;;;;;;;27.80;17.00;;;487.20;2380.80;;;;;;5012947;28;20454;-74
2021/09/27 02:53:25;;;;;;;28.77;16.85;;;487.20;2380.80;;;;;;5012898;28;20137;-72
2021/09/27 02:56:25;;;;;;;30.75;17.80;;;487.20;2380.80;;;;;;5012848;28;20532;-74
2021/09/27 02:59:26;;;;;;;24.67;16.45;;;487.30;2380.80;;;;;;4994410;28;20041;-73
2021/09/27 03:02:06;;;;;;;26.50;16.38;;;487.30;2380.80;;;;;;5028828;28;20033;-73
2021/09/27 03:04:34;;;;;;;27.08;16.77;;;487.30;2380.80;;;;;;5015905;28;20028;-72
2021/09/27 03:07:14;;;;;;;26.80;15.60;;;487.20;2380.80;;;;;;5032438;28;20037;-74
2021/09/27 03:10:26;;;;;;;25.23;15.15;;;487.20;2380.80;;;;;;5031694;28;20573;-73
2021/09/27 03:12:54;;;;;;;27.63;15.13;;;487.30;2380.80;;;;;;4915328;29;20047;-73
2021/09/27 03:15:59;;;;;;;27.13;15.48;;;487.20;2380.80;;;;;;4915985;29;20131;-72
2021/09/27 03:18:56;;;;;;;24.90;15.30;;;487.20;2380.80;;;;;;4915493;29;20036;-72
2021/09/27 03:21:44;;;;;;;21.38;14.40;;;487.20;2380.80;;;;;;4915787;29;20134;-73
2021/09/27 03:24:35;;;;;;;24.55;15.27;;;487.20;2380.80;;;;;;4915880;29;20493;-73
2021/09/27 03:27:06;;;;;;;22.73;14.88;;;487.20;2380.80;;;;;;4915815;29;20044;-73
2021/09/27 03:29:41;;;;;;;24.70;14.48;;;487.30;2380.80;;;;;;4915031;28;20036;-73
2021/09/27 03:32:33;;;;;;;25.10;14.65;;;487.30;2380.80;;;;;;4915623;29;20503;-74
2021/09/27 03:35:22;;;;;;;23.83;14.70;;;487.30;2380.80;;;;;;4923687;29;20256;-74
2021/09/27 03:38:28;;;;;;;23.88;14.30;;;487.30;2380.80;;;;;;4934720;29;20055;-74
2021/09/27 03:40:59;;;;;;;20.77;13.85;;;487.20;2380.80;;;;;;4877901;29;20033;-74
2021/09/27 03:43:52;;;;;;;21.60;13.77;;;487.00;2380.80;;;;;;4878183;29;20085;-74
2021/09/27 03:46:41;;;;;;;19.08;12.93;;;487.10;2380.80;;;;;;4878325;29;20044;-73
2021/09/27 03:49:32;;;;;;;20.55;13.10;;;487.20;2380.80;;;;;;4912078;28;20110;-74
2021/09/27 03:52:13;;;;;;;20.73;12.65;;;487.20;2380.80;;;;;;5011971;28;20048;-72
2021/09/27 03:55:03;;;;;;;19.77;13.65;;;487.20;2380.80;;;;;;4995577;28;20341;-73
2021/09/27 03:57:43;;;;;;;22.65;14.30;;;487.20;2380.80;;;;;;5011052;28;20029;-74
2021/09/27 04:00:14;;;;;;;25.65;14.65;;;487.20;2380.80;;;;;;5011480;28;20032;-74
2021/09/27 04:02:47;;;;;;;23.70;14.25;;;487.20;2380.80;;;;;;5011986;28;20415;-74
2021/09/27 04:05:17;;;;;;;22.80;14.32;;;487.20;2380.80;;;;;;5011722;28;20492;-74
2021/09/27 04:08:07;;;;;;;22.70;14.52;;;487.30;2380.80;;;;;;5011791;28;20026;-74
2021/09/27 04:11:01;;;;;;;18.92;13.30;;;487.30;2380.80;;;;;;5011599;28;20077;-74
2021/09/27 04:13:37;;;;;;;23.55;14.88;;;487.30;2380.80;;;;;;5011637;28;20048;-75
2021/09/27 04:16:15;;;;;;;25.40;16.02;;;487.30;2380.80;;;;;;5011991;28;20110;-73
2021/09/27 04:18:41;;;;;;;25.58;16.35;;;487.30;2380.80;;;;;;5093357;28;20081;-74
2021/09/27 04:21:28;;;;;;;26.48;16.30;;;487.20;2380.80;;;;;;5093631;28;20385;-74
2021/09/27 04:24:06;;;;;;;26.33;17.42;;;487.30;2380.80;;;;;;5075314;28;20017;-73
2021/09/27 04:27:17;;;;;;;28.33;17.27;;;487.30;2380.80;;;;;;5092821;28;20021;-73
2021/09/27 04:30:13;;;;;;;20.27;14.82;;;487.20;2380.80;;;;;;5072708;28;20025;-74
2021/09/27 04:32:41;;;;;;;21.40;15.27;;;487.30;2380.80;;;;;;5085393;28;20382;-72
2021/09/27 04:35:16;;;;;;;23.63;15.27;;;487.20;2380.80;;;;;;5092583;28;20032;-72
2021/09/27 04:37:43;;;;;;;;;;;487.20;2380.80;;;;;;5092593;28;20109;-73
2021/09/27 04:40:11;;;;;;;25.13;15.27;;;487.20;2380.80;;;;;;5093050;28;19904;-73
2021/09/27 04:42:49;;;;;;;26.38;14.90;;;487.00;2380.80;;;;;;5092866;28;20039;-73
2021/09/27 04:45:43;;;;;;;25.58;15.10;;;486.90;2380.80;;;;;;5091989;28;20043;-73
2021/09/27 04:48:24;;;;;;;;;;;486.90;2380.80;;;;;;4991914;28;20062;-72
2021/09/27 04:50:55;;;;;;;24.65;15.05;;;486.90;2380.80;;;;;;4990983;28;19909;-73
2021/09/27 04:53:39;;;;;;;21.00;14.32;;;486.90;2380.80;;;;;;4991623;28;20042;-72
2021/09/27 04:56:40;;;;;;;24.40;15.45;;;486.90;2380.80;;;;;;4991054;28;20488;-72
2021/09/27 04:59:43;;;;;;;24.08;16.20;;;486.90;2380.80;;;;;;4975144;28;20073;-69
2021/09/27 05:02:31;;;;;;;21.42;15.25;;;486.80;2380.80;;;;;;4991666;28;20049;-72
2021/09/27 05:05:06;;;;;;;23.98;15.48;;;486.80;2380.80;;;;;;4990718;28;20038;-70
2021/09/27 05:07:50;;;;;;;23.67;16.45;;;486.80;2380.80;;;;;;4991443;28;20034;-69
2021/09/27 05:10:24;;;;;;;33.60;17.37;;;486.70;2380.80;;;;;;4994883;28;20058;-71
2021/09/27 05:12:53;;;;;;;24.77;16.23;;;486.70;2380.80;;;;;;4994720;28;20057;-71
2021/09/27 05:15:43;;;;;;;24.92;16.23;;;486.70;2380.80;;;;;;4978554;28;20030;-70
2021/09/27 05:18:45;;;;;;;27.05;16.17;;;486.80;2380.80;;;;;;4994912;28;20513;-70
2021/09/27 05:21:56;;;;;;;22.45;15.57;;;486.90;2380.80;;;;;;4975393;28;20046;-71
2021/09/27 05:24:49;;;;;;;24.65;15.57;;;486.90;2380.80;;;;;;4918643;28;20063;-70
2021/09/27 05:27:33;;;;;;;24.48;16.80;;;486.90;2380.80;;;;;;5001730;28;20026;-69
2021/09/27 05:29:59;;;;;;;23.73;16.05;;;486.90;2380.80;;;;;;5018753;28;20042;-68
2021/09/27 05:32:30;;;;;;;28.30;17.08;;;486.90;2380.80;;;;;;5023396;28;20033;-72
2021/09/27 05:34:59;;;;;;;24.60;16.80;;;486.90;2380.80;;;;;;5022392;28;20520;-70
2021/09/27 05:37:37;;;;;;;24.27;15.82;;;487.00;2380.80;;;;;;5022233;28;20021;-70
2021/09/27 05:40:11;;;;;;;26.30;18.10;;;487.00;2380.80;;;;;;5022860;28;20104;-69
2021/09/27 05:42:54;;;;;;;22.58;17.25;;;487.00;2380.80;;;;;;5022084;28;20044;-70
2021/09/27 05:45:36;;;;;;;27.13;17.30;;;487.00;2380.80;;;;;;5020594;28;20444;-70
2021/09/27 05:48:18;;;;;;;24.70;16.60;;;487.10;2380.80;;;;;;5022636;28;20037;-71
2021/09/27 05:50:52;;;;;;;24.30;17.13;;;487.10;2380.80;;;;;;5020262;28;20611;-72
2021/09/27 05:53:18;;;;;;;21.45;15.60;;;487.10;2380.80;;;;;;5017806;28;20528;-71
2021/09/27 05:55:56;;;;;;;25.45;15.68;;;487.10;2380.80;;;;;;5022219;28;20033;-73
2021/09/27 05:58:31;;;;;;;23.75;15.73;;;487.20;2380.80;;;;;;5022553;28;20028;-75
2021/09/27 06:01:15;;;;;;;;;;;487.20;2380.80;;;;;;5057148;28;20031;-78
2021/09/27 06:03:59;;;;;;;32.58;17.15;;;487.30;2380.80;;;;;;5097763;28;19904;-77
2021/09/27 06:06:41;;;;;;;28.80;17.33;;;487.30;2380.80;;;;;;5102559;28;20099;-66
2021/09/27 06:09:41;;;;;;;25.77;18.17;;;487.20;2380.80;;;;;;5101959;28;20077;-64
2021/09/27 06:12:34;;;;;;;27.40;19.10;;;487.30;2380.80;;;;;;5102091;28;20725;-66
2021/09/27 06:15:05;;;;;;;25.60;19.57;;;487.30;2380.80;;;;;;5100137;28;20044;-67
2021/09/27 06:17:45;;;;;;;26.80;19.15;;;512.00;2380.80;;;;;;5099409;28;20264;-66
2021/09/27 06:20:29;;;;;;;27.80;19.88;;;512.10;2380.80;;;;;;5103287;28;20077;-65
2021/09/27 06:22:58;;;;;;;31.20;19.98;;;512.20;2380.80;;;;;;5093353;28;20046;-70
2021/09/27 06:25:24;;;;;;;29.92;18.95;;;512.30;2380.80;;;;;;5092990;28;20020;-67
2021/09/27 06:28:13;;;;;;;25.48;18.50;;;512.40;2380.80;;;;;;5095624;28;20081;-68
2021/09/27 06:30:44;;;;;;;26.77;18.88;;;512.50;2380.80;;;;;;4989802;28;20500;-64
2021/09/27 06:33:16;;;;;;;29.75;21.73;;;512.60;2380.80;;;;;;4990232;28;20400;-69
2021/09/27 06:35:49;;;;;;;30.48;20.38;;;512.70;2380.80;;;;;;4991405;28;20042;-69
2021/09/27 06:38:17;;;;;;;27.42;21.10;;;512.80;2380.80;;;;;;4991151;28;20040;-69
2021/09/27 06:40:49;;;;;;;26.83;19.98;;;512.80;2380.80;;;;;;4991545;28;20040;-66
2021/09/27 06:43:19;;;;;;;26.63;18.85;;;537.60;2406.40;;;;;;4990924;28;20084;-65
2021/09/27 06:45:46;;;;;;;27.13;19.60;;;512.90;2380.80;;;;;;4991608;28;20104;-64
2021/09/27 06:48:12;;;;;;;31.02;19.85;;;512.90;2380.80;;;;;;4990619;28;20044;-67
2021/09/27 06:50:38;;;;;;;33.60;20.05;;;537.60;2406.40;;;;;;4990920;28;20101;-65
2021/09/27 06:53:04;;;;;;;30.17;20.90;;;537.60;2406.40;;;;;;4991308;28;20121;-67
2021/09/27 06:55:30;;;;;;;26.02;20.15;;;537.70;2406.40;;;;;;4990718;28;20030;-66
2021/09/27 06:57:56;;;;;;;26.38;19.25;;;537.90;2406.40;;;;;;4991737;28;20031;-63
2021/09/27 07:00:23;;;;;;;23.60;19.25;;;537.90;2406.40;;;;;;4990115;28;20574;-63
2021/09/27 07:02:49;;;;;;;27.33;18.48;;;538.30;2406.40;;;;;;4969308;28;20030;-66
2021/09/27 07:05:14;;;;;;;27.83;17.52;;;563.20;2432.00;;;;;;4990559;28;20107;-65
2021/09/27 07:07:42;;;;;;;25.00;17.83;;;563.70;2432.00;;;;;;5043614;28;20052;-65
2021/09/27 07:10:13;;;;;;;26.25;17.67;;;564.00;2432.00;;;;;;5092642;28;20032;-67
2021/09/27 07:12:39;;;;;;;26.73;17.75;;;564.10;2432.00;;;;;;5093659;28;20031;-66
2021/09/27 07:15:06;;;;;;;26.63;17.02;;;588.80;2432.00;;;;;;5094496;28;20028;-67
2021/09/27 07:17:32;;;;;;;24.35;17.67;;;588.80;2432.00;;;;;;5094436;28;20021;-65
2021/09/27 07:19:59;;;;;;;26.50;17.92;;;588.90;2432.00;;;;;;5094961;28;20359;-67
2021/09/27 07:22:25;;;;;;;25.85;16.50;;;588.80;2432.00;;;;;;5094353;28;20048;-67
2021/09/27 07:24:52;;;;;;;25.35;17.23;;;588.80;2432.00;;;;;;5094355;28;20055;-68
2021/09/27 07:27:17;;;;;;;25.88;17.73;;;588.80;2432.00;;;;;;5094414;28;20502;-67
2021/09/27 07:29:43;;;;;;;26.70;18.60;;;589.00;2432.00;;;;;;5094533;28;20055;-67
2021/09/27 07:32:09;;;;;;;26.20;16.23;;;589.20;2432.00;;;;;;5094155;28;20048;-67
2021/09/27 07:34:35;;;;;;;21.40;14.35;;;589.50;2432.00;;;;;;5075676;28;20113;-68
2021/09/27 07:37:04;;;;;;;19.63;14.35;;;589.40;2432.00;;;;;;5094223;28;20072;-68
2021/09/27 07:39:31;;;;;;;18.75;13.63;;;589.40;2432.00;;;;;;5076066;28;20028;-68
2021/09/27 07:41:57;;;;;;;22.92;13.48;;;589.30;2432.00;;;;;;5094306;28;20370;-68
2021/09/27 07:44:23;;;;;;;21.98;13.27;;;614.50;2432.00;;;;;;5094136;28;20020;-66
2021/09/27 07:46:51;;;;;;;20.90;12.48;;;615.20;2432.00;;;;;;5094181;28;20040;-67
2021/09/27 07:49:17;;;;;;;15.20;9.90;;;640.90;2432.00;;;;;;5093956;28;20027;-69
2021/09/27 07:51:43;;;;;;;;;;;691.30;2432.00;;;;;;5094670;28;19908;-69
2021/09/27 07:54:09;;;;;;;16.50;8.55;;;717.40;2278.40;;;;;;5094041;28;19921;-69
2021/09/27 07:56:35;;;;;;;17.48;8.32;;;768.00;2124.80;;;;;;5094208;28;20036;-69
2021/09/27 07:59:06;;;;;;;15.68;8.00;;;794.20;1971.20;;;;;;5093690;28;20082;-70
2021/09/27 08:01:31;;;;;;;15.00;7.40;;;820.00;1740.80;;;;;;5094004;28;20024;-71
2021/09/27 08:03:57;;;;;;;12.52;7.15;;;870.60;1587.20;;;;;;5093923;28;20489;-72
2021/09/27 08:06:23;;;;;;;13.10;6.93;;;896.40;1459.20;;;;;;5094139;28;20031;-71
2021/09/27 08:08:49;;;;;;;13.02;6.63;;;922.20;1305.60;;;;;;5093935;28;20028;-71
2021/09/27 08:11:14;;;;;;;14.05;6.53;;;947.70;1203.20;;;;;;5093767;28;20158;-72
2021/09/27 08:13:40;;;;;;;11.35;5.78;;;973.00;1152.00;;;;;;5093604;28;20040;-72
2021/09/27 08:16:06;;;;;;;13.60;5.80;;;998.70;1100.80;;;;;;5093688;28;20381;-71
2021/09/27 08:18:32;;;;;;;12.30;6.00;;;999.30;1024.00;;;;;;5093683;28;20032;-73
2021/09/27 08:21:03;;;;;;;13.85;5.88;;;1024.80;972.80;;;;;;5093657;28;20199;-73
2021/09/27 08:23:29;;;;;;;10.80;5.50;;;1049.80;972.80;;;;;;5093802;28;20031;-71
2021/09/27 08:25:56;;;;;;;10.73;5.82;;;1050.20;947.20;;;;;;5093571;28;20032;-71
2021/09/27 08:28:24;;;;;;;7.57;5.35;;;1050.10;921.60;;;;;;5093583;28;20016;-72
2021/09/27 08:30:56;;;;;;;9.98;5.18;;;1075.50;896.00;;;;;;5093738;28;20028;-71
2021/09/27 08:33:23;;;;;;;10.40;5.38;;;1076.00;896.00;;;;;;5093398;28;20107;-70
2021/09/27 08:35:52;;;;;;;9.23;5.30;;;1101.20;844.80;;;;;;5093659;28;20097;-71
2021/09/27 08:38:19;;;;;;;13.00;4.90;;;1101.00;819.20;;;;;;5093538;28;20410;-72
2021/09/27 08:41:00;;;;;;;11.88;5.10;;;1126.50;793.60;;;;;;5093359;28;20481;-70
2021/09/27 08:43:44;;;;;;;12.40;5.03;;;1127.00;768.00;;;;;;5096225;28;20028;-72
2021/09/27 08:46:14;;;;;;;13.52;5.25;;;1126.90;793.60;;;;;;5097443;28;20089;-72
2021/09/27 08:49:06;;;;;;;9.55;4.53;;;1152.50;716.80;;;;;;5097547;28;20095;-71
2021/09/27 08:51:34;;;;;;;10.10;5.20;;;1152.60;691.20;;;;;;5097443;28;20458;-72
2021/09/27 08:54:01;;;;;;;12.32;5.00;;;1177.90;691.20;;;;;;5097448;28;20044;-72
2021/09/27 08:57:01;;;;;;;11.50;5.00;;;1178.10;665.60;;;;;;5097448;28;20016;-71
2021/09/27 08:59:30;;;;;;;7.85;4.63;;;1203.60;640.00;;;;;;5097135;28;20028;-71
2021/09/27 09:02:08;;;;;;;14.25;4.90;;;1203.60;640.00;;;;;;5096969;28;20028;-73
2021/09/27 09:04:56;;;;;;;9.57;4.28;;;1204.10;614.40;;;;;;5096786;28;20052;-71
2021/09/27 09:07:23;;;;;;;11.95;5.38;;;1229.10;588.80;;;;;;5097241;28;20056;-74
2021/09/27 09:10:07;;;;;;;10.52;4.60;;;1229.20;614.40;;;;;;5096819;28;20024;-72
2021/09/27 09:12:59;;;;;;;10.48;5.82;;;1229.70;563.20;;;;;;5096916;28;20385;-74
2021/09/27 09:15:26;;;;;;;;;;;1229.10;588.80;;;;;;5097333;28;20031;-74
2021/09/27 09:18:04;;;;;;;8.35;3.35;;;1229.40;537.60;;;;;;5096861;28;19904;-71
2021/09/27 09:20:58;;;;;;;6.78;3.30;;;1254.50;537.60;;;;;;5096938;28;20115;-73
2021/09/27 09:23:27;;;;;;;5.90;2.60;;;1229.10;537.60;;;;;;5096357;28;20093;-72
2021/09/27 09:25:54;;;;;;;7.05;3.13;;;1229.70;512.00;;;;;;5096714;28;20032;-73
2021/09/27 09:28:21;;;;;;;8.02;3.00;;;1254.80;512.00;;;;;;5096830;28;20052;-71
2021/09/27 09:30:53;;;;;;;7.00;2.65;;;1255.20;512.00;;;;;;5096585;28;20107;-72
2021/09/27 09:33:40;;;;;;;4.78;2.72;;;1254.80;512.00;;;;;;5096416;28;20056;-73
2021/09/27 09:36:07;;;;;;;8.23;2.90;;;1280.10;486.40;;;;;;5096553;28;20021;-69
2021/09/27 09:38:38;;;;;;;6.85;3.00;;;1255.20;486.40;;;;;;5096597;28;20035;-65
2021/09/27 09:41:06;;;;;;;5.65;2.78;;;1280.10;486.40;;;;;;5096437;28;20382;-71
2021/09/27 09:43:35;;;;;;;7.85;3.10;;;1280.60;486.40;;;;;;5096348;28;20431;-72
2021/09/27 09:46:13;;;;;;;6.63;2.70;;;1280.90;486.40;;;;;;5096510;28;20047;-74
2021/09/27 09:48:57;;;;;;;7.15;2.72;;;1280.60;486.40;;;;;;5096421;28;20024;-75
2021/09/27 09:51:36;;;;;;;5.63;3.03;;;1280.80;486.40;;;;;;5096277;28;20073;-73
2021/09/27 09:54:17;;;;;;;4.97;2.90;;;1305.60;486.40;;;;;;5095606;28;20050;-75
2021/09/27 09:56:58;;;;;;;7.15;3.00;;;1305.80;486.40;;;;;;5096050;28;20028;-75
2021/09/27 09:59:37;;;;;;;7.47;2.90;;;1280.40;486.40;;;;;;5096160;28;20020;-74
2021/09/27 10:02:08;;;;;;;6.78;2.83;;;1255.20;486.40;;;;;;5096229;28;20024;-75
2021/09/27 10:04:41;;;;;;;5.40;2.65;;;1228.80;537.60;;;;;;5095888;28;20039;-75
2021/09/27 10:07:15;;;;;;;6.30;3.28;;;1229.70;512.00;;;;;;5095925;28;20111;-68
2021/09/27 10:09:58;;;;;;;6.50;2.80;;;1254.40;512.00;;;;;;5096059;28;20020;-73
2021/09/27 10:12:55;;;;;;;;;;;1229.30;512.00;;;;;;5096545;28;20016;-76
2021/09/27 10:15:27;;;;;;;4.85;2.88;;;1254.70;512.00;;;;;;5013448;28;20000;-76
2021/09/27 10:18:17;;;;;;;6.75;3.20;;;1280.10;486.40;;;;;;5013557;28;20045;-77
2021/09/27 10:21:06;;;;;;;4.70;2.72;;;1280.40;486.40;;;;;;5013574;28;20065;-74
2021/09/27 10:23:37;;;;;;;4.50;2.67;;;1280.90;486.40;;;;;;4997361;28;20036;-77
2021/09/27 10:26:26;;;;;;;10.88;3.00;;;1305.60;486.40;;;;;;5013467;28;20088;-77
2021/09/27 10:28:54;;;;;;;5.18;2.80;;;1280.10;486.40;;;;;;5013569;28;20026;-76
2021/09/27 10:31:23;;;;;;;5.13;2.90;;;1280.10;486.40;;;;;;5013295;28;20041;-75
2021/09/27 10:33:53;;;;;;;6.03;2.95;;;1280.40;486.40;;;;;;5013457;28;20037;-75
2021/09/27 10:36:44;;;;;;;4.97;2.60;;;1280.90;486.40;;;;;;5013344;28;20109;-78
2021/09/27 10:39:12;;;;;;;3.55;2.45;;;1305.60;486.40;;;;;;5013318;28;20116;-77
2021/09/27 10:41:38;;;;;;;4.90;2.67;;;1305.90;486.40;;;;;;5013213;28;20080;-73
2021/09/27 10:44:13;;;;;;;4.07;2.80;;;1305.80;486.40;;;;;;5013085;28;20042;-78
2021/09/27 10:46:41;;;;;;;4.63;2.60;;;1305.60;486.40;;;;;;5013333;28;20022;-78
2021/09/27 10:49:16;;;;;;;5.32;2.80;;;1280.80;486.40;;;;;;5013181;28;20029;-71
2021/09/27 10:51:45;;;;;;;5.10;3.25;;;1254.80;486.40;;;;;;5079830;28;20497;-76
2021/09/27 10:54:17;;;;;;;5.32;2.90;;;1255.00;486.40;;;;;;5095537;28;20385;-78
2021/09/27 10:56:52;;;;;;;5.30;3.10;;;1280.30;486.40;;;;;;5095120;28;20020;-75
2021/09/27 10:59:35;;;;;;;5.20;3.05;;;1280.60;486.40;;;;;;5094801;28;20028;-77
2021/09/27 11:02:13;;;;;;;4.20;2.90;;;1280.90;486.40;;;;;;5094716;28;20103;-74
2021/09/27 11:04:46;;;;;;;5.18;3.10;;;1305.80;486.40;;;;;;5094850;28;20130;-76
2021/09/27 11:07:31;;;;;;;5.25;3.17;;;1305.80;486.40;;;;;;5094024;28;20027;-72
2021/09/27 11:09:59;;;;;;;4.50;2.72;;;1306.20;486.40;;;;;;5094589;28;20016;-78
2021/09/27 11:12:24;;;;;;;5.57;2.75;;;1306.50;486.40;;;;;;5094947;28;20028;-78
2021/09/27 11:15:01;;;;;;;5.85;2.92;;;1331.30;512.00;;;;;;5094539;28;20374;-78
2021/09/27 11:17:30;;;;;;;5.45;3.17;;;1306.10;486.40;;;;;;5094851;28;20518;-78
2021/09/27 11:20:16;;;;;;;6.13;2.90;;;1305.90;486.40;;;;;;5094477;28;20085;-73
2021/09/27 11:22:56;;;;;;;5.90;3.00;;;1306.20;486.40;;;;;;5094304;28;20051;-78
2021/09/27 11:25:22;;;;;;;4.57;2.80;;;1306.50;486.40;;;;;;5074178;28;20063;-75
2021/09/27 11:28:16;;;;;;;5.57;4.03;;;1305.80;486.40;;;;;;5072264;28;20063;-68
2021/09/27 11:31:04;;;;;;;4.72;3.53;;;1305.60;486.40;;;;;;4993979;28;20030;-76
2021/09/27 11:33:30;;;;;;;6.90;3.55;;;1280.80;486.40;;;;;;5019059;28;20288;-76
2021/09/27 11:36:16;;;;;;;8.00;3.60;;;1280.60;486.40;;;;;;5030528;28;20116;-74
2021/09/27 11:38:47;;;;;;;5.18;3.47;;;1280.60;486.40;;;;;;5010190;28;20034;-73
2021/09/27 11:41:13;;;;;;;7.25;3.67;;;1280.90;486.40;;;;;;5010211;28;20040;-76
2021/09/27 11:44:05;;;;;;;6.97;4.10;;;1305.80;486.40;;;;;;5009398;28;20042;-75
2021/09/27 11:46:38;;;;;;;6.65;3.53;;;1280.30;486.40;;;;;;5009101;28;20381;-78
2021/09/27 11:49:21;;;;;;;8.98;4.13;;;1280.60;486.40;;;;;;5010494;28;20530;-77
2021/09/27 11:52:09;;;;;;;7.63;3.97;;;1255.30;486.40;;;;;;4980690;28;20115;-79
2021/09/27 11:54:54;;;;;;;7.20;3.90;;;1229.70;460.80;;;;;;4958519;28;20034;-78
2021/09/27 11:58:06;;;;;;;5.60;3.75;;;1254.70;486.40;;;;;;4957132;28;20081;-78
2021/09/27 12:00:44;;;;;;;7.38;3.80;;;1254.80;486.40;;;;;;4935452;29;20510;-78
2021/09/27 12:03:19;;;;;;;7.82;3.88;;;1254.90;486.40;;;;;;4936472;29;20043;-79
2021/09/27 12:06:16;;;;;;;7.20;3.97;;;1255.20;486.40;;;;;;4935138;29;20517;-79
2021/09/27 12:08:53;;;;;;;7.50;3.60;;;1255.30;486.40;;;;;;4954449;29;20043;-79
2021/09/27 12:11:20;;;;;;;7.38;3.70;;;1280.60;486.40;;;;;;4954594;28;20489;-75
2021/09/27 12:13:55;;;;;;;6.65;3.60;;;1280.60;486.40;;;;;;4954094;28;20068;-77
2021/09/27 12:16:26;;;;;;;6.95;4.05;;;1280.10;486.40;;;;;;4981616;28;20043;-77
2021/09/27 12:18:58;;;;;;;6.60;3.58;;;1280.40;486.40;;;;;;4999119;28;20029;-77
2021/09/27 12:21:27;;;;;;;5.23;3.80;;;1280.40;486.40;;;;;;4999083;28;20050;-77
2021/09/27 12:23:55;;;;;;;6.15;4.07;;;1255.20;486.40;;;;;;4998811;28;20354;-77
2021/09/27 12:26:30;;;;;;;6.80;3.83;;;1254.40;486.40;;;;;;4999052;28;20396;-77
2021/09/27 12:29:18;;;;;;;8.98;4.10;;;1229.40;486.40;;;;;;5000925;28;20080;-77
2021/09/27 12:31:49;;;;;;;6.47;4.20;;;1127.30;588.80;;;;;;4994989;28;20528;-70
2021/09/27 12:34:20;;;;;;;8.68;5.03;;;1152.60;537.60;;;;;;4996147;28;20129;-75
2021/09/27 12:36:45;;;;;;;7.45;4.80;;;1152.50;563.20;;;;;;5030408;28;20056;-68
2021/09/27 12:39:12;;;;;;;8.50;4.93;;;1101.20;614.40;;;;;;5060325;28;20067;-70
2021/09/27 12:41:39;;;;;;;7.50;4.40;;;1126.80;588.80;;;;;;5058877;28;20028;-72
2021/09/27 12:44:13;;;;;;;5.88;4.22;;;1152.10;563.20;;;;;;5098335;28;20040;-66
2021/09/27 12:46:41;;;;;;;7.63;4.28;;;1152.40;537.60;;;;;;5098321;28;20369;-70
2021/09/27 12:49:09;;;;;;;8.48;4.20;;;1152.50;537.60;;;;;;5098184;28;20473;-66
2021/09/27 12:51:50;;;;;;;7.18;4.15;;;1152.40;537.60;;;;;;5097683;28;20039;-73